createdAt,value
2018-12-26T00:00:19.485Z,5.97
2018-12-26T00:02:48.993Z,5.70
2018-12-26T00:05:18.580Z,6.20
2018-12-26T00:07:48.099Z,5.83
2018-12-26T00:10:17.576Z,5.20
2018-12-26T00:12:47.421Z,7.10
2018-12-26T00:15:16.927Z,6.70
2018-12-26T00:17:46.430Z,6.70
2018-12-26T00:20:18.728Z,6.17
2018-12-26T00:22:48.249Z,6.60
2018-12-26T00:25:17.747Z,7.50
2018-12-26T00:27:47.342Z,7.10
2018-12-26T00:30:16.823Z,8.37
2018-12-26T00:32:46.336Z,8.20
2018-12-26T00:35:15.986Z,8.27
2018-12-26T00:37:47.104Z,8.60
2018-12-26T00:40:16.623Z,8.63
2018-12-26T00:42:47.048Z,8.40
2018-12-26T00:45:16.558Z,10.30
2018-12-26T00:47:46.066Z,9.10
2018-12-26T00:50:15.588Z,10.70
2018-12-26T00:52:46.255Z,9.50
2018-12-26T00:55:15.772Z,10.30
2018-12-26T00:57:46.806Z,11.40
2018-12-26T01:00:16.311Z,11.37
2018-12-26T01:02:45.984Z,12.55
2018-12-26T01:05:15.488Z,12.73
2018-12-26T01:07:44.968Z,14.73
2018-12-26T01:10:14.454Z,14.50
2018-12-26T01:12:43.982Z,15.20
2018-12-26T01:15:13.458Z,15.10
2018-12-26T01:17:42.963Z,16.00
2018-12-26T01:20:12.783Z,16.73
2018-12-26T01:22:42.296Z,18.90
2018-12-26T01:25:12.098Z,17.90
2018-12-26T01:27:41.688Z,18.20
2018-12-26T01:30:11.220Z,18.98
2018-12-26T01:32:40.880Z,19.70
2018-12-26T01:35:10.459Z,19.30
2018-12-26T01:37:40.071Z,20.60
2018-12-26T01:40:10.068Z,21.35
2018-12-26T01:42:39.963Z,20.93
2018-12-26T01:45:09.461Z,21.50
2018-12-26T01:47:39.066Z,20.92
2018-12-26T01:50:09.202Z,22.25
2018-12-26T01:52:38.708Z,22.03
2018-12-26T01:55:08.249Z,22.77
2018-12-26T01:57:37.793Z,23.35
2018-12-26T02:00:08.602Z,24.05
2018-12-26T02:02:38.119Z,23.70
2018-12-26T02:05:07.972Z,24.80
2018-12-26T02:07:37.476Z,23.70
2018-12-26T02:10:08.518Z,24.92
2018-12-26T02:12:38.059Z,24.92
2018-12-26T02:15:07.833Z,25.97
2018-12-26T02:17:37.347Z,25.40
2018-12-26T02:20:08.480Z,26.12
2018-12-26T02:22:38.019Z,24.92
2018-12-26T02:25:08.182Z,25.52
2018-12-26T02:27:37.747Z,25.40
2018-12-26T02:30:08.402Z,25.23
2018-12-26T02:32:37.917Z,24.23
2018-12-26T02:35:08.326Z,23.77
2018-12-26T02:37:37.841Z,24.45
2018-12-26T02:40:08.079Z,23.45
2018-12-26T02:42:37.957Z,24.55
2018-12-26T02:45:07.852Z,24.30
2018-12-26T02:47:37.385Z,26.07
2018-12-26T02:50:09.753Z,23.95
2018-12-26T02:52:39.296Z,24.07
2018-12-26T02:55:08.834Z,24.77
2018-12-26T02:57:38.591Z,23.18
2018-12-26T03:00:09.551Z,24.60
2018-12-26T03:02:39.058Z,22.75
2018-12-26T03:05:08.701Z,23.52
2018-12-26T03:07:38.233Z,23.32
2018-12-26T03:10:08.427Z,22.48
2018-12-26T03:12:38.011Z,23.77
2018-12-26T03:15:08.714Z,22.73
2018-12-26T03:17:38.647Z,22.53
2018-12-26T03:20:08.637Z,21.73
2018-12-26T03:22:38.193Z,22.42
2018-12-26T03:25:07.714Z,23.15
2018-12-26T03:27:37.265Z,21.50
2018-12-26T03:30:08.939Z,22.87
2018-12-26T03:32:38.477Z,22.50
2018-12-26T03:35:08.081Z,22.05
2018-12-26T03:37:37.593Z,21.25
2018-12-26T03:40:08.930Z,21.17
2018-12-26T03:42:39.177Z,22.00
2018-12-26T03:45:08.666Z,22.03
2018-12-26T03:47:39.612Z,22.20
2018-12-26T03:50:10.750Z,21.75
2018-12-26T03:52:40.332Z,22.60
2018-12-26T03:55:09.828Z,22.17
2018-12-26T03:57:39.666Z,21.83
2018-12-26T04:00:10.489Z,21.57
2018-12-26T04:02:39.982Z,19.90
2018-12-26T04:05:09.526Z,20.35
2018-12-26T04:07:39.205Z,20.75
2018-12-26T04:10:09.279Z,21.50
2018-12-26T04:12:38.894Z,21.62
2018-12-26T04:15:08.497Z,21.60
2018-12-26T04:17:38.589Z,20.75
2018-12-26T04:20:08.462Z,20.50
2018-12-26T04:22:38.106Z,22.30
2018-12-26T04:25:07.683Z,21.40
2018-12-26T04:27:37.249Z,21.97
2018-12-26T04:30:10.298Z,20.17
2018-12-26T04:32:39.823Z,21.20
2018-12-26T04:35:10.458Z,20.80
2018-12-26T04:37:48.693Z,22.05
2018-12-26T04:40:18.244Z,21.15
2018-12-26T04:42:47.798Z,19.63
2018-12-26T04:45:17.314Z,20.17
2018-12-26T04:47:46.883Z,21.40
2018-12-26T04:50:16.412Z,20.27
2018-12-26T04:52:45.919Z,21.13
2018-12-26T04:55:15.499Z,20.33
2018-12-26T04:57:45.004Z,19.27
2018-12-26T05:00:14.539Z,20.72
2018-12-26T05:02:44.079Z,23.37
2018-12-26T05:05:13.657Z,22.20
2018-12-26T05:07:43.209Z,23.15
2018-12-26T05:10:12.737Z,21.00
2018-12-26T05:12:42.360Z,20.90
2018-12-26T05:15:11.918Z,23.70
2018-12-26T05:17:41.686Z,21.87
2018-12-26T05:20:11.180Z,22.00
2018-12-26T05:22:40.684Z,21.43
2018-12-26T05:25:10.250Z,20.53
2018-12-26T05:27:39.773Z,20.67
2018-12-26T05:30:10.574Z,21.90
2018-12-26T05:32:40.133Z,22.30
2018-12-26T05:35:09.666Z,22.60
2018-12-26T05:37:39.154Z,22.73
2018-12-26T05:40:09.123Z,22.07
2018-12-26T05:42:38.615Z,23.97
2018-12-26T05:45:08.565Z,24.47
2018-12-26T05:47:38.650Z,22.30
2018-12-26T05:50:12.800Z,22.60
2018-12-26T05:52:42.328Z,23.20
2018-12-26T05:55:12.050Z,22.45
2018-12-26T05:57:42.868Z,22.97
2018-12-26T06:00:12.728Z,23.30
2018-12-26T06:02:42.285Z,22.65
2018-12-26T06:05:11.799Z,23.53
2018-12-26T06:07:41.338Z,23.17
2018-12-26T06:10:10.849Z,23.03
2018-12-26T06:12:40.389Z,23.60
2018-12-26T06:15:09.970Z,22.47
2018-12-26T06:17:39.834Z,23.17
2018-12-26T06:20:09.348Z,23.63
2018-12-26T06:22:38.848Z,23.40
2018-12-26T06:25:08.407Z,22.23
2018-12-26T06:27:40.825Z,24.47
2018-12-26T06:30:10.329Z,22.67
2018-12-26T06:32:39.860Z,24.47
2018-12-26T06:35:09.385Z,23.73
2018-12-26T06:37:38.920Z,23.47
2018-12-26T06:40:09.373Z,24.33
2018-12-26T06:42:38.903Z,24.57
2018-12-26T06:45:08.425Z,23.73
2018-12-26T06:47:38.209Z,24.80
2018-12-26T06:50:07.706Z,25.80
2018-12-26T06:52:37.198Z,26.63
2018-12-26T06:55:06.727Z,27.07
2018-12-26T06:57:36.242Z,26.07
2018-12-26T07:00:07.383Z,27.20
2018-12-26T07:02:37.027Z,26.70
2018-12-26T07:05:06.520Z,27.87
2018-12-26T07:07:36.102Z,28.47
2018-12-26T07:10:06.204Z,29.20
2018-12-26T07:12:35.702Z,29.37
2018-12-26T07:15:06.265Z,29.37
2018-12-26T07:17:35.832Z,29.40
2018-12-26T07:20:05.517Z,30.23
2018-12-26T07:22:35.080Z,29.75
2018-12-26T07:25:05.172Z,25.83
2018-12-26T07:27:34.703Z,26.77
2018-12-26T07:30:05.100Z,28.97
2018-12-26T07:32:34.658Z,28.50
2018-12-26T07:35:04.321Z,26.67
2018-12-26T07:37:33.853Z,27.00
2018-12-26T07:40:05.413Z,26.62
2018-12-26T07:42:34.696Z,27.30
2018-12-26T07:45:07.445Z,26.80
2018-12-26T07:47:38.213Z,26.90
2018-12-26T07:50:08.981Z,26.33
2018-12-26T07:52:38.527Z,25.37
2018-12-26T07:55:08.087Z,26.00
2018-12-26T07:57:37.614Z,25.07
2018-12-26T08:00:10.344Z,23.80
2018-12-26T08:02:40.246Z,25.27
2018-12-26T08:05:09.803Z,23.60
2018-12-26T08:07:39.335Z,24.70
2018-12-26T08:10:09.601Z,26.73
2018-12-26T08:12:39.149Z,26.70
2018-12-26T08:15:10.876Z,26.53
2018-12-26T08:17:40.179Z,26.00
2018-12-26T08:20:09.734Z,27.00
2018-12-26T08:22:39.260Z,25.20
2018-12-26T08:25:09.279Z,25.67
2018-12-26T08:27:38.958Z,26.60
2018-12-26T08:30:08.726Z,24.83
2018-12-26T08:32:38.284Z,25.07
2018-12-26T08:35:07.788Z,25.00
2018-12-26T08:37:37.366Z,26.63
2018-12-26T08:40:08.355Z,26.10
2018-12-26T08:42:37.929Z,27.93
2018-12-26T08:45:07.617Z,27.37
2018-12-26T08:47:37.288Z,25.13
2018-12-26T08:50:08.884Z,28.13
2018-12-26T08:52:38.437Z,26.30
2018-12-26T08:55:07.991Z,24.80
2018-12-26T08:57:37.514Z,27.53
2018-12-26T09:00:09.349Z,26.50
2018-12-26T09:02:39.028Z,26.60
2018-12-26T09:05:08.524Z,27.40
2018-12-26T09:07:38.026Z,27.23
2018-12-26T09:10:10.872Z,27.20
2018-12-26T09:12:40.419Z,27.63
2018-12-26T09:15:10.403Z,27.90
2018-12-26T09:17:40.147Z,25.47
2018-12-26T09:20:09.650Z,26.50
2018-12-26T09:22:39.124Z,26.80
2018-12-26T09:25:09.172Z,25.87
2018-12-26T09:27:38.711Z,25.23
2018-12-26T09:30:10.333Z,24.30
2018-12-26T09:32:39.837Z,27.00
2018-12-26T09:35:10.493Z,25.53
2018-12-26T09:37:40.943Z,26.40
2018-12-26T09:40:10.676Z,26.07
2018-12-26T09:42:40.188Z,24.80
2018-12-26T09:45:10.104Z,25.10
2018-12-26T09:47:39.647Z,24.20
2018-12-26T09:50:09.228Z,25.50
2018-12-26T09:52:38.774Z,24.30
2018-12-26T09:55:08.322Z,24.40
2018-12-26T09:57:37.834Z,24.33
2018-12-26T10:00:10.074Z,23.03
2018-12-26T10:02:40.654Z,23.03
2018-12-26T10:05:10.183Z,22.40
2018-12-26T10:07:40.170Z,19.90
2018-12-26T10:10:09.710Z,20.93
2018-12-26T10:12:39.348Z,21.80
2018-12-26T10:15:09.983Z,20.17
2018-12-26T10:17:39.560Z,20.60
2018-12-26T10:20:09.168Z,20.20
2018-12-26T10:22:38.675Z,20.40
2018-12-26T10:25:09.087Z,20.73
2018-12-26T10:27:38.599Z,20.47
2018-12-26T10:30:09.651Z,18.73
2018-12-26T10:32:39.230Z,19.60
2018-12-26T10:35:08.815Z,18.97
2018-12-26T10:37:38.394Z,20.43
2018-12-26T10:40:08.956Z,18.80
2018-12-26T10:42:38.831Z,20.10
2018-12-26T10:45:08.781Z,19.30
2018-12-26T10:47:38.499Z,19.17
2018-12-26T10:50:10.354Z,18.17
2018-12-26T10:52:39.852Z,19.07
2018-12-26T10:55:09.468Z,18.50
2018-12-26T10:57:38.990Z,17.60
2018-12-26T11:00:11.927Z,19.20
2018-12-26T11:02:41.665Z,17.13
2018-12-26T11:05:11.199Z,18.97
2018-12-26T11:07:40.735Z,19.67
2018-12-26T11:10:10.273Z,19.77
2018-12-26T11:12:39.778Z,19.80
2018-12-26T11:15:10.221Z,20.47
2018-12-26T11:17:39.766Z,20.93
2018-12-26T11:20:12.947Z,19.73
2018-12-26T11:22:42.477Z,20.00
2018-12-26T11:25:12.606Z,20.73
2018-12-26T11:27:42.304Z,20.07
2018-12-26T11:30:12.734Z,20.43
2018-12-26T11:32:42.410Z,19.77
2018-12-26T11:35:11.985Z,20.97
2018-12-26T11:37:41.604Z,20.63
2018-12-26T11:40:11.773Z,22.57
2018-12-26T11:42:41.395Z,21.23
2018-12-26T11:45:11.204Z,20.37
2018-12-26T11:47:41.113Z,21.90
2018-12-26T11:50:11.123Z,21.53
2018-12-26T11:52:40.773Z,20.40
2018-12-26T11:55:10.324Z,20.07
2018-12-26T11:57:39.822Z,21.27
2018-12-26T12:00:10.062Z,21.60
2018-12-26T12:02:39.608Z,19.83
2018-12-26T12:05:09.585Z,22.17
2018-12-26T12:07:39.123Z,20.67
2018-12-26T12:10:09.038Z,20.77
2018-12-26T12:12:38.568Z,21.07
2018-12-26T12:15:08.228Z,20.33
2018-12-26T12:17:37.857Z,20.87
2018-12-26T12:20:10.649Z,21.10
2018-12-26T12:22:40.216Z,22.20
2018-12-26T12:25:10.160Z,20.93
2018-12-26T12:27:39.687Z,19.90
2018-12-26T12:30:09.253Z,20.57
2018-12-26T12:32:38.779Z,19.60
2018-12-26T12:35:08.929Z,19.00
2018-12-26T12:37:38.548Z,20.80
2018-12-26T12:40:11.666Z,18.67
2018-12-26T12:42:41.168Z,17.53
2018-12-26T12:45:10.807Z,17.73
2018-12-26T12:47:40.514Z,17.77
2018-12-26T12:50:10.063Z,18.30
2018-12-26T12:52:40.084Z,18.80
2018-12-26T12:55:09.639Z,18.70
2018-12-26T12:57:39.195Z,18.00
2018-12-26T13:00:09.948Z,17.07
2018-12-26T13:02:40.250Z,16.87
2018-12-26T13:05:09.811Z,19.30
2018-12-26T13:07:39.350Z,18.90
2018-12-26T13:10:08.967Z,17.00
2018-12-26T13:12:38.532Z,17.30
2018-12-26T13:15:08.063Z,18.50
2018-12-26T13:17:37.619Z,16.00
2018-12-26T13:20:09.070Z,16.80
2018-12-26T13:22:38.599Z,18.00
2018-12-26T13:25:08.764Z,16.40
2018-12-26T13:27:38.328Z,16.83
2018-12-26T13:30:10.642Z,18.27
2018-12-26T13:32:40.212Z,17.17
2018-12-26T13:35:09.705Z,18.10
2018-12-26T13:37:40.572Z,18.80
2018-12-26T13:40:10.323Z,18.40
2018-12-26T13:42:39.824Z,18.30
2018-12-26T13:45:09.410Z,18.87
2018-12-26T13:47:38.943Z,21.10
2018-12-26T13:50:09.255Z,19.00
2018-12-26T13:52:38.803Z,20.43
2018-12-26T13:55:08.402Z,20.07
2018-12-26T13:57:37.916Z,19.83
2018-12-26T14:00:10.725Z,21.13
2018-12-26T14:02:40.783Z,21.40
2018-12-26T14:05:10.320Z,21.67
2018-12-26T14:07:39.919Z,20.17
2018-12-26T14:10:11.372Z,22.43
2018-12-26T14:12:41.063Z,22.00
2018-12-26T14:15:12.122Z,22.03
2018-12-26T14:17:41.993Z,20.50
2018-12-26T14:20:11.600Z,22.00
2018-12-26T14:22:41.146Z,22.10
2018-12-26T14:25:11.062Z,22.93
2018-12-26T14:27:40.672Z,24.07
2018-12-26T14:30:11.405Z,22.70
2018-12-26T14:32:41.289Z,23.20
2018-12-26T14:35:10.823Z,23.93
2018-12-26T14:37:40.329Z,24.93
2018-12-26T14:40:09.939Z,23.30
2018-12-26T14:42:39.890Z,22.40
2018-12-26T14:45:09.404Z,24.13
2018-12-26T14:47:38.943Z,25.20
2018-12-26T14:50:09.129Z,26.27
2018-12-26T14:52:38.685Z,24.43
2018-12-26T14:55:08.293Z,25.90
2018-12-26T14:57:37.806Z,25.90
2018-12-26T15:00:08.062Z,26.23
2018-12-26T15:02:38.078Z,26.27
2018-12-26T15:05:07.700Z,25.87
2018-12-26T15:07:37.219Z,26.60
2018-12-26T15:10:07.937Z,26.77
2018-12-26T15:12:37.524Z,25.33
2018-12-26T15:15:07.507Z,27.50
2018-12-26T15:17:37.065Z,28.03
2018-12-26T15:20:07.891Z,27.30
2018-12-26T15:22:37.515Z,29.37
2018-12-26T15:25:07.374Z,28.77
2018-12-26T15:27:36.994Z,28.30
2018-12-26T15:30:07.160Z,29.70
2018-12-26T15:32:36.756Z,27.17
2018-12-26T15:35:06.271Z,29.30
2018-12-26T15:37:35.789Z,26.77
2018-12-26T15:40:09.274Z,28.07
2018-12-26T15:42:38.817Z,28.57
2018-12-26T15:45:08.878Z,28.87
2018-12-26T15:47:38.479Z,30.57
2018-12-26T15:50:08.596Z,28.77
2018-12-26T15:52:38.482Z,30.17
2018-12-26T15:55:08.127Z,30.20
2018-12-26T15:57:37.630Z,29.33
2018-12-26T16:00:09.961Z,29.27
2018-12-26T16:02:40.018Z,30.03
2018-12-26T16:05:09.553Z,33.73
2018-12-26T16:07:39.166Z,30.87
2018-12-26T16:10:09.201Z,31.50
2018-12-26T16:12:38.730Z,31.60
2018-12-26T16:15:09.782Z,32.77
2018-12-26T16:17:39.326Z,31.83
2018-12-26T16:20:10.777Z,32.83
2018-12-26T16:22:40.319Z,32.90
2018-12-26T16:25:11.359Z,34.33
2018-12-26T16:27:40.855Z,35.37
2018-12-26T16:30:10.740Z,34.00
2018-12-26T16:32:40.331Z,38.00
2018-12-26T16:35:10.008Z,37.00
2018-12-26T16:37:39.586Z,36.77
2018-12-26T16:40:09.232Z,37.90
2018-12-26T16:42:38.741Z,38.63
2018-12-26T16:45:08.472Z,37.07
2018-12-26T16:47:38.118Z,39.50
2018-12-26T16:50:08.993Z,39.10
2018-12-26T16:52:38.501Z,39.23
2018-12-26T16:55:10.363Z,37.13
2018-12-26T16:57:40.166Z,39.20
2018-12-26T17:00:14.942Z,41.43
2018-12-26T17:02:44.295Z,38.67
2018-12-26T17:05:13.863Z,41.60
2018-12-26T17:07:43.426Z,41.83
2018-12-26T17:10:17.702Z,39.20
2018-12-26T17:12:47.199Z,39.80
2018-12-26T17:15:16.729Z,40.63
2018-12-26T17:17:46.388Z,41.83
2018-12-26T17:20:15.888Z,39.93
2018-12-26T17:22:45.439Z,41.80
2018-12-26T17:25:15.039Z,40.83
2018-12-26T17:27:44.556Z,42.60
2018-12-26T17:30:15.505Z,39.77
2018-12-26T17:32:45.082Z,41.30
2018-12-26T17:35:14.659Z,40.50
2018-12-26T17:37:48.934Z,41.40
2018-12-26T17:40:18.534Z,40.50
2018-12-26T17:42:48.161Z,40.87
2018-12-26T17:45:22.196Z,41.00
2018-12-26T17:47:51.773Z,41.67
2018-12-26T17:50:44.272Z,41.13
2018-12-26T17:53:30.236Z,40.43
2018-12-26T17:56:19.222Z,41.87
2018-12-26T17:58:53.590Z,41.03
2018-12-26T18:01:36.808Z,44.97
2018-12-26T18:04:06.424Z,41.93
2018-12-26T18:06:36.059Z,44.53
2018-12-26T18:09:07.716Z,41.00
2018-12-26T18:11:37.251Z,43.10
2018-12-26T18:14:06.770Z,41.73
2018-12-26T18:16:36.336Z,41.10
2018-12-26T18:19:06.559Z,40.63
2018-12-26T18:21:36.065Z,40.07
2018-12-26T18:24:05.656Z,39.77
2018-12-26T18:26:35.243Z,38.23
2018-12-26T18:29:04.740Z,37.60
2018-12-26T18:31:34.240Z,38.13
2018-12-26T18:34:03.814Z,38.13
2018-12-26T18:36:33.690Z,35.93
2018-12-26T18:39:03.971Z,35.80
2018-12-26T18:41:33.629Z,35.63
2018-12-26T18:44:03.211Z,36.77
2018-12-26T18:46:33.188Z,35.13
2018-12-26T18:49:02.888Z,36.00
2018-12-26T18:51:32.475Z,37.60
2018-12-26T18:54:02.003Z,36.07
2018-12-26T18:56:31.662Z,33.60
2018-12-26T18:59:01.182Z,35.97
2018-12-26T19:01:30.987Z,33.87
2018-12-26T19:04:00.701Z,34.90
2018-12-26T19:06:30.325Z,33.97
2018-12-26T19:08:59.842Z,35.53
2018-12-26T19:11:29.420Z,34.80
2018-12-26T19:13:59.335Z,36.17
2018-12-26T19:16:28.881Z,36.70
2018-12-26T19:18:58.424Z,37.07
2018-12-26T19:21:27.946Z,36.07
2018-12-26T19:23:57.498Z,37.23
2018-12-26T19:26:27.976Z,38.03
2018-12-26T19:28:57.528Z,37.97
2018-12-26T19:31:27.073Z,37.60
2018-12-26T19:33:56.635Z,37.63
2018-12-26T19:36:26.165Z,37.13
2018-12-26T19:38:55.657Z,37.70
2018-12-26T19:41:25.164Z,37.90
2018-12-26T19:43:54.726Z,37.40
2018-12-26T19:46:24.240Z,36.67
2018-12-26T19:48:53.833Z,37.30
2018-12-26T19:51:23.349Z,35.70
2018-12-26T19:53:52.871Z,38.30
2018-12-26T19:56:22.415Z,38.70
2018-12-26T19:58:51.903Z,38.43
2018-12-26T20:01:21.414Z,37.97
2018-12-26T20:03:50.961Z,37.93
2018-12-26T20:06:20.478Z,36.73
2018-12-26T20:08:49.999Z,36.90
2018-12-26T20:11:19.796Z,35.13
2018-12-26T20:13:49.274Z,36.40
2018-12-26T20:16:18.801Z,37.53
2018-12-26T20:18:48.360Z,35.77
2018-12-26T20:21:17.935Z,36.33
2018-12-26T20:23:47.481Z,34.73
2018-12-26T20:26:17.156Z,33.73
2018-12-26T20:28:46.667Z,31.97
2018-12-26T20:31:16.170Z,34.77
2018-12-26T20:33:46.295Z,32.43
2018-12-26T20:36:15.823Z,33.27
2018-12-26T20:38:45.335Z,31.33
2018-12-26T20:41:14.869Z,32.60
2018-12-26T20:43:44.436Z,30.60
2018-12-26T20:46:14.254Z,29.50
2018-12-26T20:48:43.857Z,30.60
2018-12-26T20:51:13.350Z,30.03
2018-12-26T20:53:42.877Z,28.80
2018-12-26T20:56:12.477Z,27.67
2018-12-26T20:58:42.062Z,28.47
2018-12-26T21:01:11.560Z,27.47
2018-12-26T21:03:41.091Z,27.70
2018-12-26T21:06:10.624Z,27.23
2018-12-26T21:08:40.195Z,27.87
2018-12-26T21:11:09.740Z,29.27
2018-12-26T21:13:39.240Z,27.57
2018-12-26T21:16:08.747Z,29.10
2018-12-26T21:18:38.799Z,29.57
2018-12-26T21:21:08.307Z,27.40
2018-12-26T21:23:37.824Z,28.83
2018-12-26T21:26:07.350Z,27.87
2018-12-26T21:28:36.898Z,29.97
2018-12-26T21:31:06.401Z,28.10
2018-12-26T21:33:36.001Z,26.77
2018-12-26T21:36:05.921Z,30.30
2018-12-26T21:38:35.445Z,29.60
2018-12-26T21:41:05.173Z,29.07
2018-12-26T21:43:34.672Z,29.00
2018-12-26T21:46:04.219Z,29.83
2018-12-26T21:48:33.783Z,29.07
2018-12-26T21:51:03.278Z,28.83
2018-12-26T21:53:33.099Z,28.77
2018-12-26T21:56:02.647Z,29.20
2018-12-26T21:58:32.209Z,27.63
2018-12-26T22:01:01.719Z,27.20
2018-12-26T22:03:31.380Z,26.70
2018-12-26T22:06:00.941Z,26.87
2018-12-26T22:08:30.465Z,29.00
2018-12-26T22:11:00.013Z,28.07
2018-12-26T22:13:29.500Z,28.00
2018-12-26T22:15:59.027Z,27.67
2018-12-26T22:18:28.599Z,30.33
2018-12-26T22:20:58.109Z,30.43
2018-12-26T22:23:27.662Z,28.50
2018-12-26T22:25:57.716Z,30.43
2018-12-26T22:28:27.231Z,30.47
2018-12-26T22:30:56.789Z,30.40
2018-12-26T22:33:26.338Z,31.20
2018-12-26T22:35:55.846Z,30.40
2018-12-26T22:38:25.378Z,31.13
2018-12-26T22:40:54.909Z,31.23
2018-12-26T22:43:24.414Z,30.53
2018-12-26T22:45:53.919Z,32.43
2018-12-26T22:48:23.860Z,31.33
2018-12-26T22:50:53.415Z,31.30
2018-12-26T22:53:23.068Z,31.50
2018-12-26T22:55:52.619Z,30.73
2018-12-26T22:58:22.116Z,33.20
2018-12-26T23:00:52.281Z,33.43
2018-12-26T23:03:22.190Z,32.90
2018-12-26T23:05:51.694Z,34.10
2018-12-26T23:08:21.225Z,33.50
2018-12-26T23:10:51.258Z,34.47
2018-12-26T23:13:20.860Z,34.30
2018-12-26T23:15:50.371Z,34.90
2018-12-26T23:18:19.907Z,33.40
2018-12-26T23:20:49.414Z,34.00
2018-12-26T23:23:18.916Z,32.30
2018-12-26T23:25:48.447Z,33.27
2018-12-26T23:28:18.102Z,31.37
2018-12-26T23:30:47.711Z,31.27
2018-12-26T23:33:17.512Z,32.90
2018-12-26T23:35:47.027Z,33.13
2018-12-26T23:38:16.522Z,32.20
2018-12-26T23:40:46.067Z,33.00
2018-12-26T23:43:15.598Z,31.67
2018-12-26T23:45:45.128Z,33.27
2018-12-26T23:48:14.697Z,33.80
2018-12-26T23:50:44.189Z,32.10
2018-12-26T23:53:14.022Z,31.90
2018-12-26T23:55:43.835Z,33.87
2018-12-26T23:58:13.391Z,31.60
